Time;durP1;ratioP1;P1;durP2;ratioP2;P2;SDS_P1;SDS_P2;PMS_P1;PMS_P2;Temp;Humidity;BMP_temperature;BMP_pressure;BME280_temperature;BME280_humidity;BME280_pressure;Samples;Min_cycle;Max_cycle;Signal;HPM_P1;HPM_P2
2022/07/05 00:01:24;;;;;;;15.53;11.75;;;;;;;17.72;75.76;100433.92;2156288;82;29340;-66
2022/07/05 00:04:25;;;;;;;13.13;11.80;;;;;;;17.70;75.93;100429.14;2156523;82;27716;-66
2022/07/05 00:07:26;;;;;;;14.07;12.73;;;;;;;17.69;76.13;100426.53;2156326;82;29444;-66
2022/07/05 00:10:28;;;;;;;21.80;13.75;;;;;;;17.69;76.42;100415.22;2156281;82;32002;-66
2022/07/05 00:13:29;;;;;;;13.80;12.60;;;;;;;17.70;76.41;100414.71;2156246;82;33945;-65
2022/07/05 00:16:34;;;;;;;19.35;12.75;;;;;;;17.71;76.45;100403.74;2155994;82;29394;-67
2022/07/05 00:19:35;;;;;;;13.53;12.33;;;;;;;17.74;76.69;100402.16;2156617;82;27695;-66
2022/07/05 00:22:37;;;;;;;13.15;11.95;;;;;;;17.79;76.81;100401.78;2148015;82;29705;-66
2022/07/05 00:25:38;;;;;;;13.25;11.88;;;;;;;17.83;76.76;100404.63;2156292;82;31048;-66
2022/07/05 00:28:40;;;;;;;12.50;11.40;;;;;;;17.86;76.94;100403.04;2156994;82;33732;-65
2022/07/05 00:31:41;;;;;;;14.80;13.30;;;;;;;17.91;76.92;100398.61;2156521;82;29313;-66
2022/07/05 00:34:43;;;;;;;13.43;12.28;;;;;;;17.94;76.95;100399.72;2156486;82;27650;-67
2022/07/05 00:37:45;;;;;;;15.85;12.47;;;;;;;17.96;76.92;100400.95;2156340;82;28504;-66
2022/07/05 00:40:47;;;;;;;14.28;12.90;;;;;;;17.99;77.08;100402.98;2156433;82;31500;-66
2022/07/05 00:43:55;;;;;;;14.25;12.65;;;;;;;18.03;77.10;100403.11;2156478;82;33575;-66
2022/07/05 00:46:57;;;;;;;13.43;12.13;;;;;;;18.04;77.11;100395.31;2141834;82;29293;-66
2022/07/05 00:49:59;;;;;;;15.30;11.83;;;;;;;18.05;77.27;100397.05;2156080;82;27738;-66
2022/07/05 00:53:02;;;;;;;13.18;11.75;;;;;;;18.09;77.37;100396.80;2135812;82;29457;-66
2022/07/05 00:56:06;;;;;;;12.88;11.75;;;;;;;18.11;77.35;100401.14;2149742;81;30441;-65
2022/07/05 00:59:08;;;;;;;13.50;12.00;;;;;;;18.13;77.46;100395.08;2150843;82;33177;-65
2022/07/05 01:02:09;;;;;;;14.80;12.55;;;;;;;18.16;77.55;100400.77;2150854;82;29003;-65
2022/07/05 01:05:11;;;;;;;13.50;12.18;;;;;;;18.17;77.48;100400.63;2150735;82;27814;-66
2022/07/05 01:08:14;;;;;;;15.90;12.35;;;;;;;18.20;77.52;100397.68;2150743;82;29665;-66
2022/07/05 01:11:15;;;;;;;13.60;12.20;;;;;;;18.22;77.48;100386.22;2150789;82;31396;-66
2022/07/05 01:14:22;;;;;;;14.00;12.13;;;;;;;18.24;77.54;100384.73;2151000;82;32999;-66
2022/07/05 01:17:24;;;;;;;14.05;11.48;;;;;;;18.24;77.43;100390.15;2150542;82;30246;-66
2022/07/05 01:20:26;;;;;;;16.23;12.03;;;;;;;18.24;77.41;100387.95;2150977;82;27687;-66
2022/07/05 01:23:29;;;;;;;12.90;11.57;;;;;;;18.25;77.44;100376.96;2181149;81;27837;-66
2022/07/05 01:26:31;;;;;;;14.25;10.50;;;;;;;18.26;77.49;100376.48;2188530;81;31013;-65
2022/07/05 01:29:33;;;;;;;11.57;10.40;;;;;;;18.27;77.50;100376.34;2188495;81;33730;-66
2022/07/05 01:32:34;;;;;;;13.70;10.05;;;;;;;18.28;77.34;100379.44;2146405;82;29327;-66
2022/07/05 01:35:36;;;;;;;15.60;10.18;;;;;;;18.28;77.31;100377.23;2120288;82;27711;-66
2022/07/05 01:38:38;;;;;;;14.53;10.68;;;;;;;18.27;77.23;100371.44;2123552;83;28810;-66
2022/07/05 01:41:39;;;;;;;12.35;9.95;;;;;;;18.27;77.15;100372.79;2146314;82;31823;-66
2022/07/05 01:44:40;;;;;;;21.68;9.58;;;;;;;18.26;77.08;100367.00;2146273;81;33065;-66
2022/07/05 01:47:48;;;;;;;14.80;10.48;;;;;;;18.29;77.15;100379.80;2146467;82;29899;-65
2022/07/05 01:50:53;;;;;;;11.00;9.43;;;;;;;18.27;77.05;100379.06;2146132;83;28316;-65
2022/07/05 01:53:55;;;;;;;17.40;10.38;;;;;;;18.29;76.88;100385.23;2147243;81;28650;-65
2022/07/05 01:56:56;;;;;;;15.43;10.43;;;;;;;18.30;77.02;100382.89;2157895;82;31108;-66
2022/07/05 01:59:57;;;;;;;13.18;10.53;;;;;;;18.30;76.92;100386.95;2104842;82;33018;-65
2022/07/05 02:02:59;;;;;;;10.95;9.93;;;;;;;18.28;77.13;100384.01;2158140;82;29317;-66
2022/07/05 02:06:00;;;;;;;15.00;10.55;;;;;;;18.31;77.16;100391.39;2157677;82;27744;-66
2022/07/05 02:09:05;;;;;;;10.58;9.45;;;;;;;18.32;77.09;100394.95;2157977;82;28667;-65
2022/07/05 02:12:08;;;;;;;16.37;10.35;;;;;;;18.31;77.16;100396.81;2158069;82;31038;-65
2022/07/05 02:15:10;;;;;;;12.70;10.10;;;;;;;18.29;76.96;100390.66;2158145;81;33795;-65
2022/07/05 02:18:11;;;;;;;12.53;9.25;;;;;;;18.30;77.06;100386.07;2156220;82;29366;-65
2022/07/05 02:21:13;;;;;;;11.78;10.60;;;;;;;18.28;76.93;100394.34;2158551;82;27923;-65
2022/07/05 02:24:15;;;;;;;11.93;10.20;;;;;;;18.26;76.93;100392.25;2158411;82;29523;-65
2022/07/05 02:27:16;;;;;;;10.82;9.73;;;;;;;18.25;77.01;100403.23;2158421;82;31028;-65
2022/07/05 02:30:18;;;;;;;14.73;10.15;;;;;;;18.23;77.03;100407.41;2158438;82;32951;-65
2022/07/05 02:33:19;;;;;;;16.35;10.40;;;;;;;18.22;77.22;100408.39;2158377;82;29352;-65
2022/07/05 02:36:20;;;;;;;12.80;10.25;;;;;;;18.21;77.21;100414.32;2128941;82;27663;-65
2022/07/05 02:39:23;;;;;;;13.48;10.68;;;;;;;18.21;77.28;100416.16;2158574;82;28669;-65
2022/07/05 02:42:26;;;;;;;11.90;10.45;;;;;;;18.20;77.31;100409.87;2158281;82;31260;-65
2022/07/05 02:45:28;;;;;;;13.38;10.82;;;;;;;18.19;77.48;100410.86;2137154;82;33846;-64
2022/07/05 02:48:31;;;;;;;14.95;12.07;;;;;;;18.18;77.36;100408.29;2120954;83;29374;-65
2022/07/05 02:51:33;;;;;;;17.48;11.63;;;;;;;18.16;77.37;100420.59;2121526;82;27722;-65
2022/07/05 02:54:36;;;;;;;13.40;10.68;;;;;;;18.17;77.57;100430.97;2121290;82;28168;-65
2022/07/05 02:57:38;;;;;;;15.10;11.20;;;;;;;18.16;77.67;100430.09;2121069;83;31177;-65
2022/07/05 03:00:39;;;;;;;13.40;12.00;;;;;;;18.17;77.76;100428.25;2121226;82;32970;-65
2022/07/05 03:03:41;;;;;;;12.95;11.78;;;;;;;18.19;77.78;100424.94;2121351;82;30278;-65
2022/07/05 03:06:42;;;;;;;12.15;11.15;;;;;;;18.21;77.96;100419.74;2121368;82;27744;-66
2022/07/05 03:09:43;;;;;;;13.25;11.95;;;;;;;18.25;78.09;100429.00;2121362;83;28640;-66
2022/07/05 03:12:45;;;;;;;14.68;12.82;;;;;;;18.27;78.05;100425.67;2121264;83;31016;-65
2022/07/05 03:15:46;;;;;;;14.40;12.45;;;;;;;18.29;77.98;100429.09;2123879;82;33490;-65
2022/07/05 03:18:48;;;;;;;18.75;13.13;;;;;;;18.28;77.97;100427.40;2121593;82;29383;-64
2022/07/05 03:21:50;;;;;;;22.02;12.53;;;;;;;18.29;77.93;100432.69;2121012;83;27742;-64
2022/07/05 03:24:52;;;;;;;18.87;12.00;;;;;;;18.29;77.95;100435.88;2121335;82;28737;-64
2022/07/05 03:27:53;;;;;;;14.07;11.95;;;;;;;18.30;78.21;100441.20;2121199;83;31862;-65
2022/07/05 03:30:55;;;;;;;12.82;11.50;;;;;;;18.33;78.26;100446.38;2121191;82;32943;-65
2022/07/05 03:33:56;;;;;;;13.03;11.57;;;;;;;18.35;78.26;100451.20;2121018;83;29393;-64
2022/07/05 03:36:57;;;;;;;13.03;11.55;;;;;;;18.38;78.37;100457.70;2121356;83;27687;-65
2022/07/05 03:39:59;;;;;;;13.32;12.13;;;;;;;18.40;78.21;100460.31;2121296;83;28657;-65
2022/07/05 03:43:00;;;;;;;13.28;11.95;;;;;;;18.41;78.15;100462.04;2121221;83;31021;-65
2022/07/05 03:46:01;;;;;;;14.47;12.03;;;;;;;18.41;78.16;100470.17;2151275;82;32958;-65
2022/07/05 03:49:03;;;;;;;13.08;10.63;;;;;;;18.41;78.04;100476.08;2158277;82;29352;-65
2022/07/05 03:52:05;;;;;;;13.05;10.93;;;;;;;18.37;77.92;100475.47;2157918;82;27734;-64
2022/07/05 03:55:08;;;;;;;14.13;11.48;;;;;;;18.41;78.16;100483.73;2122161;83;29465;-64
2022/07/05 03:58:10;;;;;;;12.88;11.55;;;;;;;18.43;78.31;100483.12;2125181;83;31098;-64
2022/07/05 04:01:12;;;;;;;12.28;10.88;;;;;;;18.43;78.14;100487.20;2125161;82;32990;-65
2022/07/05 04:04:13;;;;;;;12.25;10.80;;;;;;;18.43;77.88;100491.74;2125182;82;30115;-64
2022/07/05 04:07:15;;;;;;;12.33;10.98;;;;;;;18.42;77.92;100489.54;2125344;83;28338;-64
2022/07/05 04:10:18;;;;;;;12.60;10.95;;;;;;;18.44;77.89;100499.78;2124935;83;28689;-64
2022/07/05 04:13:21;;;;;;;12.78;10.75;;;;;;;18.46;78.04;100500.48;2125180;83;31024;-65
2022/07/05 04:16:23;;;;;;;15.15;11.00;;;;;;;18.47;77.89;100509.00;2159047;82;32999;-65
2022/07/05 04:19:24;;;;;;;13.28;11.43;;;;;;;18.48;78.19;100511.23;2162356;82;29726;-65
2022/07/05 04:22:27;;;;;;;16.60;11.25;;;;;;;18.50;78.28;100518.26;2162444;82;27650;-64
2022/07/05 04:25:30;;;;;;;12.05;10.88;;;;;;;18.52;78.25;100524.42;2161918;82;29733;-65
2022/07/05 04:28:32;;;;;;;13.98;11.08;;;;;;;18.55;78.33;100529.24;2162265;82;30990;-65
2022/07/05 04:31:35;;;;;;;13.95;10.63;;;;;;;18.53;78.17;100515.81;2162373;82;33086;-64
2022/07/05 04:34:38;;;;;;;13.58;12.03;;;;;;;18.52;78.13;100504.08;2161859;82;29554;-65
2022/07/05 04:37:41;;;;;;;17.62;15.80;;;;;;;18.53;78.16;100500.89;2162211;82;27760;-65
2022/07/05 04:40:43;;;;;;;17.92;16.20;;;;;;;18.54;78.15;100498.52;2162298;82;28652;-65
2022/07/05 04:43:45;;;;;;;15.15;12.82;;;;;;;18.58;78.20;100497.80;2161972;82;31801;-65
2022/07/05 04:46:46;;;;;;;14.20;11.33;;;;;;;18.62;78.24;100487.05;2162017;82;32938;-65
2022/07/05 04:49:47;;;;;;;15.15;10.75;;;;;;;18.66;78.18;100489.89;2162242;82;29308;-65
2022/07/05 04:52:49;;;;;;;13.48;10.40;;;;;;;18.70;78.08;100493.23;2162176;82;27647;-65
2022/07/05 04:55:50;;;;;;;15.50;11.05;;;;;;;18.71;77.91;100501.25;2161925;82;28836;-65
2022/07/05 04:58:52;;;;;;;16.10;9.70;;;;;;;18.76;77.83;100507.66;2161954;82;31737;-65
2022/07/05 05:01:53;;;;;;;10.32;8.95;;;;;;;18.78;77.80;100503.81;2162033;82;32974;-65
2022/07/05 05:04:54;;;;;;;13.50;9.30;;;;;;;18.79;77.46;100506.05;2162010;82;30100;-64
2022/07/05 05:07:57;;;;;;;10.88;9.30;;;;;;;18.79;77.41;100499.27;2162166;82;27721;-65
2022/07/05 05:10:58;;;;;;;11.20;9.05;;;;;;;18.79;77.18;100497.91;2162001;82;28662;-65
2022/07/05 05:14:00;;;;;;;12.05;9.73;;;;;;;18.76;77.07;100499.03;2162216;82;31810;-64
2022/07/05 05:17:04;;;;;;;11.22;9.45;;;;;;;18.77;77.21;100501.23;2162009;82;33003;-65
2022/07/05 05:20:10;;;;;;;12.85;10.32;;;;;;;18.78;77.16;100507.03;2162484;81;29331;-66
2022/07/05 05:23:11;;;;;;;10.78;9.50;;;;;;;18.79;77.13;100512.33;2145932;82;27980;-67
2022/07/05 05:26:13;;;;;;;10.60;9.55;;;;;;;18.80;77.18;100517.28;2125247;83;28255;-66
2022/07/05 05:29:14;;;;;;;10.78;9.58;;;;;;;18.79;77.05;100519.63;2125278;83;31854;-66
2022/07/05 05:32:15;;;;;;;12.55;9.83;;;;;;;18.79;77.04;100519.63;2125448;83;32985;-65
2022/07/05 05:35:20;;;;;;;11.75;9.48;;;;;;;18.80;77.02;100513.20;2125496;83;29377;-66
2022/07/05 05:38:19;;;;;;;11.25;9.63;;;;;;;18.80;76.99;100516.77;2125148;83;27765;-66
2022/07/05 05:41:20;;;;;;;12.07;9.23;;;;;;;18.85;77.09;100520.97;2125336;82;29511;-66
2022/07/05 05:44:21;;;;;;;9.80;8.95;;;;;;;18.88;77.05;100520.22;2125362;83;31013;-66
2022/07/05 05:47:23;;;;;;;10.85;9.13;;;;;;;18.90;76.89;100523.67;2125458;83;33721;-66
2022/07/05 05:50:32;;;;;;;10.10;9.10;;;;;;;18.93;76.88;100526.14;2125480;83;29318;-66
2022/07/05 05:53:33;;;;;;;9.63;8.83;;;;;;;18.97;76.92;100531.73;2169338;81;27654;-66
2022/07/05 05:56:35;;;;;;;12.03;9.63;;;;;;;19.01;76.67;100539.13;2185805;81;28775;-67
2022/07/05 05:59:37;;;;;;;12.68;9.20;;;;;;;19.03;76.87;100534.44;2158052;82;31116;-66
2022/07/05 06:02:39;;;;;;;11.73;9.28;;;;;;;19.07;76.76;100529.13;2158374;82;33809;-67
2022/07/05 06:05:41;;;;;;;10.53;9.53;;;;;;;19.17;76.93;100527.00;2158330;82;30135;-66
2022/07/05 06:08:42;;;;;;;11.30;9.23;;;;;;;19.27;77.28;100524.77;2158266;82;27624;-67
2022/07/05 06:11:44;;;;;;;13.65;9.33;;;;;;;19.41;77.28;100530.89;2158308;82;28638;-66
2022/07/05 06:14:45;;;;;;;9.90;9.00;;;;;;;19.58;77.29;100539.86;2158257;82;31827;-66
2022/07/05 06:17:48;;;;;;;16.77;9.90;;;;;;;19.78;77.27;100548.67;2158131;82;33045;-66
2022/07/05 06:20:50;;;;;;;11.38;10.08;;;;;;;20.00;77.21;100556.77;2158220;82;30106;-66
2022/07/05 06:23:51;;;;;;;10.20;9.30;;;;;;;20.24;77.10;100559.74;2157620;82;27616;-66
2022/07/05 06:26:53;;;;;;;9.90;8.20;;;;;;;20.66;77.19;100562.92;2157218;81;28613;-67
2022/07/05 06:29:57;;;;;;;8.33;7.12;;;;;;;21.45;77.07;100558.61;2157301;81;31215;-64
2022/07/05 06:33:00;;;;;;;7.20;6.50;;;;;;;22.24;75.56;100553.22;2144122;83;33681;-64
2022/07/05 06:36:03;;;;;;;7.30;6.60;;;;;;;22.55;74.19;100551.66;2121155;83;30186;-65
2022/07/05 06:39:04;;;;;;;7.15;5.87;;;;;;;22.52;72.44;100549.22;2121563;83;27696;-64
2022/07/05 06:42:07;;;;;;;6.42;5.35;;;;;;;22.30;71.00;100552.13;2121616;83;29312;-64
2022/07/05 06:45:10;;;;;;;9.85;5.62;;;;;;;22.04;70.75;100545.05;2121254;83;31069;-64
2022/07/05 06:48:12;;;;;;;6.65;5.83;;;;;;;21.77;70.81;100545.77;2121207;83;33868;-64
2022/07/05 06:51:14;;;;;;;7.87;6.35;;;;;;;21.53;70.68;100549.24;2121517;83;29744;-64
2022/07/05 06:54:16;;;;;;;8.40;6.55;;;;;;;21.30;71.01;100565.47;2152956;82;27712;-64
2022/07/05 06:57:23;;;;;;;12.15;6.58;;;;;;;21.09;71.32;100567.80;2156917;81;29481;-65
2022/07/05 07:00:26;;;;;;;6.03;5.53;;;;;;;20.96;71.51;100565.30;2156897;82;32501;-64
2022/07/05 07:03:29;;;;;;;5.92;5.35;;;;;;;20.96;71.76;100574.84;2157341;82;33950;-64
2022/07/05 07:06:31;;;;;;;6.15;5.55;;;;;;;20.90;71.49;100575.38;2157634;81;29345;-64
2022/07/05 07:09:33;;;;;;;7.45;6.35;;;;;;;20.87;71.74;100581.09;2157560;82;28350;-64
2022/07/05 07:12:35;;;;;;;9.68;5.97;;;;;;;20.86;72.10;100587.05;2128090;82;28773;-65
2022/07/05 07:15:37;;;;;;;9.90;6.17;;;;;;;20.88;72.29;100596.43;2157251;82;32278;-65
2022/07/05 07:18:39;;;;;;;5.97;5.30;;;;;;;20.89;72.36;100606.33;2157332;82;33050;-65
2022/07/05 07:21:41;;;;;;;7.90;6.28;;;;;;;20.85;71.93;100613.91;2157514;82;29938;-65
2022/07/05 07:24:43;;;;;;;7.60;6.47;;;;;;;20.85;72.21;100609.83;2158123;82;27609;-65
2022/07/05 07:27:49;;;;;;;6.58;5.92;;;;;;;20.86;72.29;100610.67;2158023;82;29453;-64
2022/07/05 07:30:50;;;;;;;12.65;6.37;;;;;;;20.84;72.47;100608.62;2158309;82;31111;-64
2022/07/05 07:33:52;;;;;;;7.25;6.55;;;;;;;20.80;72.52;100606.64;2158383;82;32940;-65
2022/07/05 07:36:55;;;;;;;7.45;6.15;;;;;;;20.74;72.53;100610.74;2158428;82;29391;-64
2022/07/05 07:39:58;;;;;;;9.35;7.17;;;;;;;20.67;72.70;100610.94;2158581;82;28164;-64
2022/07/05 07:43:03;;;;;;;9.95;7.60;;;;;;;20.59;72.73;100614.33;2158365;82;29501;-64
2022/07/05 07:46:10;;;;;;;7.75;7.00;;;;;;;20.51;72.80;100613.27;2158009;82;31124;-64
2022/07/05 07:49:29;;;;;;;8.40;7.70;;;;;;;20.43;72.92;100620.22;2129059;82;50055;-65
2022/07/05 07:52:40;;;;;;;9.48;7.65;;;;;;;20.37;73.07;100620.73;2157676;82;29426;-64
2022/07/05 07:55:42;;;;;;;9.00;8.10;;;;;;;20.30;73.23;100620.41;2157687;81;27511;-65
2022/07/05 07:58:44;;;;;;;9.88;8.58;;;;;;;20.26;73.71;100616.25;2157149;81;28683;-65
2022/07/05 08:01:46;;;;;;;9.00;8.18;;;;;;;20.22;73.71;100618.86;2157346;81;31114;-65
2022/07/05 08:04:49;;;;;;;9.15;8.08;;;;;;;20.19;73.88;100616.39;2156983;81;34120;-65
2022/07/05 08:07:52;;;;;;;9.05;8.23;;;;;;;20.17;73.95;100630.63;2157340;82;29339;-65
2022/07/05 08:10:53;;;;;;;10.35;8.43;;;;;;;20.16;74.05;100630.25;2157085;82;27696;-65
2022/07/05 08:13:56;;;;;;;8.83;7.95;;;;;;;20.11;73.85;100618.41;2157356;82;28745;-65
2022/07/05 08:16:58;;;;;;;10.15;9.10;;;;;;;20.04;73.93;100613.99;2156971;82;30347;-65
2022/07/05 08:23:19;;;;;;;9.55;8.60;;;;;;;19.95;74.19;100609.83;2157273;81;30305;-65
2022/07/05 08:26:21;;;;;;;8.93;7.97;;;;;;;19.90;74.20;100608.86;2157525;82;27669;-65
2022/07/05 08:29:23;;;;;;;9.03;8.05;;;;;;;19.86;74.37;100607.35;2157138;82;28668;-65
2022/07/05 08:32:25;;;;;;;8.18;7.22;;;;;;;19.81;74.46;100609.11;2157310;81;31855;-65
2022/07/05 08:35:27;;;;;;;8.23;7.40;;;;;;;19.75;74.09;100619.13;2157077;82;33681;-65
2022/07/05 08:38:29;;;;;;;7.85;7.15;;;;;;;19.67;74.08;100620.27;2157648;81;30050;-65
2022/07/05 08:41:37;;;;;;;10.75;6.50;;;;;;;19.62;74.13;100620.63;2157431;82;27704;-65
2022/07/05 08:44:40;;;;;;;9.15;6.97;;;;;;;19.59;74.14;100619.55;2157338;82;29495;-65
2022/07/05 08:47:43;;;;;;;8.88;7.53;;;;;;;19.58;74.45;100624.62;2157307;81;31024;-65
2022/07/05 08:50:48;;;;;;;7.72;6.92;;;;;;;19.57;74.33;100621.53;2157262;82;33705;-65
2022/07/05 08:53:52;;;;;;;10.82;7.15;;;;;;;19.53;74.39;100626.33;2157821;81;29326;-66
2022/07/05 08:56:53;;;;;;;9.03;7.15;;;;;;;19.52;74.51;100621.03;2160154;82;27708;-65
2022/07/05 08:59:55;;;;;;;8.60;7.12;;;;;;;19.51;74.61;100620.66;2168234;82;28727;-65
2022/07/05 09:02:56;;;;;;;7.72;6.92;;;;;;;19.50;74.85;100621.66;2167905;82;31176;-64
2022/07/05 09:06:03;;;;;;;8.18;7.20;;;;;;;19.47;74.72;100617.83;2168235;82;33763;-65
2022/07/05 09:09:06;;;;;;;9.55;6.60;;;;;;;19.47;74.91;100620.06;2168147;82;29325;-65
2022/07/05 09:12:08;;;;;;;9.23;6.80;;;;;;;19.42;74.78;100619.09;2168270;82;27988;-65
2022/07/05 09:15:10;;;;;;;8.60;6.00;;;;;;;19.37;74.62;100623.15;2168175;82;28655;-65
2022/07/05 09:18:12;;;;;;;9.03;6.37;;;;;;;19.28;74.70;100622.05;2168337;82;31666;-64
2022/07/05 09:21:22;;;;;;;12.03;5.72;;;;;;;19.22;74.92;100626.64;2168072;81;32979;-64
2022/07/05 09:24:24;;;;;;;7.47;5.30;;;;;;;19.18;74.80;100638.73;2119380;84;30016;-64
2022/07/05 09:27:25;;;;;;;8.98;5.58;;;;;;;19.11;74.79;100636.50;2119748;84;27723;-64
2022/07/05 09:30:37;;;;;;;9.08;5.95;;;;;;;19.11;75.04;100635.65;2119671;84;28146;-64
2022/07/05 09:33:47;;;;;;;9.53;6.08;;;;;;;19.05;75.00;100621.19;2119666;84;31765;-64
2022/07/05 09:37:01;;;;;;;9.03;5.92;;;;;;;19.00;74.97;100624.28;2119824;84;32066;-64
2022/07/05 09:40:04;;;;;;;5.93;4.37;;;;;;;18.96;75.20;100624.16;2119954;84;29525;-65
2022/07/05 09:43:14;;;;;;;5.42;4.55;;;;;;;18.91;74.62;100620.93;2119808;84;27626;-64
2022/07/05 09:46:15;;;;;;;4.25;3.90;;;;;;;18.85;74.69;100624.13;2119774;84;28771;-64
2022/07/05 09:49:27;;;;;;;4.50;4.03;;;;;;;18.81;74.77;100623.00;2119768;84;31806;-64
2022/07/05 09:52:33;;;;;;;8.13;4.10;;;;;;;18.82;75.06;100626.59;2139231;82;34206;-64
2022/07/05 09:55:35;;;;;;;9.63;4.28;;;;;;;18.87;75.13;100637.08;2155445;82;30540;-64
2022/07/05 09:58:36;;;;;;;9.70;4.17;;;;;;;18.90;75.03;100629.55;2148291;82;27710;-64
2022/07/05 10:01:38;;;;;;;9.78;4.10;;;;;;;18.93;74.75;100630.67;2155516;82;28680;-65
2022/07/05 10:04:40;;;;;;;5.72;3.45;;;;;;;19.02;75.00;100622.83;2127896;82;31089;-65
2022/07/05 10:07:50;;;;;;;6.30;3.98;;;;;;;19.07;74.79;100627.37;2155559;82;32937;-64
2022/07/05 10:10:52;;;;;;;5.20;3.90;;;;;;;19.14;75.21;100634.05;2155025;82;30137;-65
2022/07/05 10:13:54;;;;;;;5.65;4.35;;;;;;;19.24;75.32;100640.45;2155579;82;27724;-64
2022/07/05 10:17:02;;;;;;;6.78;4.15;;;;;;;19.37;75.58;100643.05;2155490;82;28645;-65
2022/07/05 10:20:09;;;;;;;4.78;3.95;;;;;;;19.49;75.36;100640.30;2155493;82;31025;-65
2022/07/05 10:23:14;;;;;;;4.50;4.00;;;;;;;19.64;75.04;100635.47;2154440;82;33650;-65
2022/07/05 10:26:16;;;;;;;5.42;4.33;;;;;;;19.76;74.88;100630.88;2155441;82;29333;-65
2022/07/05 10:29:18;;;;;;;7.08;4.45;;;;;;;19.85;74.37;100632.81;2155641;82;27686;-64
2022/07/05 10:32:24;;;;;;;6.12;5.53;;;;;;;19.94;74.83;100632.57;2155366;82;28689;-64
2022/07/05 10:35:25;;;;;;;5.08;3.92;;;;;;;20.01;74.75;100629.72;2155378;82;31812;-64
2022/07/05 10:38:27;;;;;;;4.78;3.65;;;;;;;20.06;74.13;100627.45;2155343;82;33818;-65
2022/07/05 10:41:31;;;;;;;3.98;3.00;;;;;;;20.04;74.02;100616.71;2155369;82;29366;-65
2022/07/05 10:44:34;;;;;;;4.10;3.70;;;;;;;20.07;73.63;100615.58;2155772;82;27764;-65
2022/07/05 10:47:35;;;;;;;4.10;3.45;;;;;;;20.14;73.55;100617.27;2155411;82;29519;-65
2022/07/05 10:50:52;;;;;;;3.95;3.27;;;;;;;20.22;73.76;100609.34;2155453;82;31002;-65
2022/07/05 10:54:02;;;;;;;6.00;3.83;;;;;;;20.37;73.26;100621.25;2152063;82;33813;-64
2022/07/05 10:57:26;;;;;;;5.12;4.03;;;;;;;20.53;73.18;100623.02;2155280;82;29332;-65
2022/07/05 11:00:28;;;;;;;4.10;3.70;;;;;;;20.73;73.36;100619.05;2155314;82;27727;-65
2022/07/05 11:03:42;;;;;;;6.08;4.35;;;;;;;20.97;72.45;100626.08;2155119;82;28783;-65
2022/07/05 11:06:46;;;;;;;8.28;4.97;;;;;;;21.19;72.36;100627.74;2155551;82;31859;-64
2022/07/05 11:10:01;;;;;;;4.78;4.28;;;;;;;21.43;72.19;100625.19;2155392;82;33786;-65
2022/07/05 11:13:36;;;;;;;6.83;5.25;;;;;;;21.69;72.06;100631.02;2155973;82;30078;-65
2022/07/05 11:16:37;;;;;;;8.10;5.30;;;;;;;21.99;71.88;100625.97;2155925;82;27717;-65
2022/07/05 11:20:01;;;;;;;6.72;5.00;;;;;;;22.24;71.53;100618.20;2155526;82;29421;-66
2022/07/05 11:23:09;;;;;;;5.85;4.20;;;;;;;22.44;71.08;100611.39;2099997;84;31030;-65
2022/07/05 11:26:17;;;;;;;4.37;3.98;;;;;;;22.65;70.58;100617.17;2108059;84;33072;-65
2022/07/05 11:29:47;;;;;;;4.25;2.50;;;;;;;22.79;69.92;100619.44;2108157;84;29321;-65
2022/07/05 11:32:48;;;;;;;5.20;2.60;;;;;;;22.86;67.48;100611.50;2108112;84;27785;-65
2022/07/05 11:35:49;;;;;;;2.75;1.92;;;;;;;22.76;67.41;100611.53;2108269;84;28771;-65
2022/07/05 11:39:16;;;;;;;6.30;2.30;;;;;;;22.76;66.82;100610.16;2108099;84;31846;-65
2022/07/05 11:42:22;;;;;;;3.12;2.20;;;;;;;22.78;67.06;100613.61;2108227;84;33839;-65
2022/07/05 11:45:24;;;;;;;3.47;2.30;;;;;;;22.89;66.84;100617.52;2107701;84;29390;-65
2022/07/05 11:48:28;;;;;;;2.22;2.05;;;;;;;22.99;66.66;100613.39;2108240;84;27746;-65
2022/07/05 11:51:30;;;;;;;5.43;2.93;;;;;;;22.99;66.17;100612.55;2093061;84;28944;-65
2022/07/05 11:54:34;;;;;;;2.22;2.08;;;;;;;23.01;66.12;100611.86;2065806;86;31013;-65
2022/07/05 11:57:52;;;;;;;4.17;2.58;;;;;;;23.01;66.12;100614.11;2064868;86;33691;-64
2022/07/05 12:01:07;;;;;;;2.27;2.10;;;;;;;22.96;65.57;100612.84;2185586;81;29386;-64
2022/07/05 12:04:25;;;;;;;4.50;2.40;;;;;;;22.80;64.83;100614.81;2162429;82;27688;-65
2022/07/05 12:07:34;;;;;;;4.35;2.47;;;;;;;22.72;65.04;100607.36;2162737;82;28710;-65
2022/07/05 12:14:08;;;;;;;2.65;2.42;;;;;;;22.59;64.32;100599.00;2162322;82;33057;-65
2022/07/05 12:17:17;;;;;;;2.55;2.08;;;;;;;22.67;64.68;100609.18;2100167;83;29333;-64
2022/07/05 12:20:23;;;;;;;2.33;2.12;;;;;;;22.82;63.87;100605.97;2185875;81;27595;-65
2022/07/05 12:23:28;;;;;;;4.03;2.70;;;;;;;23.02;64.23;100603.53;2123438;83;28666;-65
2022/07/05 12:26:30;;;;;;;3.45;2.40;;;;;;;23.33;64.20;100595.59;2162734;82;31894;-65
2022/07/05 12:29:31;;;;;;;3.62;3.30;;;;;;;23.54;63.93;100594.44;2162510;82;33023;-65
2022/07/05 12:32:33;;;;;;;2.92;2.62;;;;;;;23.68;63.14;100595.27;2162891;82;29305;-66
2022/07/05 12:35:44;;;;;;;3.47;3.17;;;;;;;23.70;63.08;100594.61;2162738;82;27694;-65
2022/07/05 12:38:47;;;;;;;5.25;2.47;;;;;;;23.72;62.73;100598.58;2162293;82;29895;-65
2022/07/05 12:41:48;;;;;;;3.98;3.22;;;;;;;23.71;62.51;100598.22;2162690;82;31172;-65
2022/07/05 12:44:49;;;;;;;3.85;2.60;;;;;;;23.72;62.48;100593.11;2162623;82;32938;-64
2022/07/05 12:47:55;;;;;;;2.90;2.70;;;;;;;23.87;62.77;100589.30;2162101;82;29937;-65
2022/07/05 12:50:57;;;;;;;3.58;3.17;;;;;;;24.03;62.30;100584.53;2152945;82;27758;-65
2022/07/05 13:00:38;;;;;;;4.15;2.50;;;;;;;24.09;61.47;100590.23;2148032;82;32472;-65
2022/07/05 13:04:10;;;;;;;3.22;2.70;;;;;;;23.94;60.43;100584.41;2148324;82;29477;-64
2022/07/05 13:07:08;;;;;;;3.67;2.62;;;;;;;23.87;60.99;100575.13;2147646;82;27683;-65
2022/07/05 13:10:27;;;;;;;4.28;2.15;;;;;;;23.80;59.85;100574.02;2151992;82;29838;-66
2022/07/05 13:13:29;;;;;;;3.92;2.40;;;;;;;23.65;60.30;100573.20;2053660;86;31057;-65
2022/07/05 13:16:30;;;;;;;2.55;2.35;;;;;;;23.55;59.60;100570.17;2077169;85;33013;-65
2022/07/05 13:19:32;;;;;;;2.87;2.60;;;;;;;23.38;58.97;100570.00;2018953;88;29311;-66
2022/07/05 13:22:33;;;;;;;5.03;2.60;;;;;;;23.23;59.26;100561.96;2112169;82;28196;-66
2022/07/05 13:25:34;;;;;;;3.75;2.35;;;;;;;23.06;58.60;100558.99;2087128;85;28738;-65
2022/07/05 13:28:36;;;;;;;4.33;3.00;;;;;;;23.00;59.31;100557.73;2143728;83;31087;-65
2022/07/05 13:31:37;;;;;;;9.85;6.00;;;;;;;22.99;59.48;100557.38;2087291;85;33543;-66
2022/07/05 13:34:39;;;;;;;3.22;2.92;;;;;;;22.98;59.80;100553.44;2143368;83;30175;-65
2022/07/05 13:37:43;;;;;;;4.65;2.83;;;;;;;22.95;58.79;100552.37;2063176;85;28123;-65
2022/07/05 13:40:44;;;;;;;4.03;2.47;;;;;;;22.91;58.55;100554.03;2143646;83;28635;-66
2022/07/05 13:43:45;;;;;;;4.78;4.05;;;;;;;22.83;58.18;100550.33;2087240;85;31074;-66
2022/07/05 13:46:52;;;;;;;3.05;2.30;;;;;;;22.79;58.45;100557.97;2143681;83;33121;-65
2022/07/05 13:53:36;;;;;;;2.40;2.20;;;;;;;22.70;57.42;100550.17;2150805;82;28202;-65
2022/07/05 13:56:47;;;;;;;5.15;1.90;;;;;;;22.65;57.80;100551.11;2125977;83;28652;-65
2022/07/05 13:59:52;;;;;;;3.25;2.20;;;;;;;22.65;57.22;100551.64;2166930;80;31154;-65
2022/07/05 14:02:53;;;;;;;2.72;2.35;;;;;;;22.68;57.69;100543.12;2158241;81;32986;-65
2022/07/05 14:05:55;;;;;;;3.85;2.40;;;;;;;22.74;58.29;100545.27;2220970;80;29367;-65
2022/07/05 14:08:57;;;;;;;3.27;2.40;;;;;;;22.78;57.86;100548.55;2200758;80;27798;-65
2022/07/05 14:11:59;;;;;;;6.05;2.50;;;;;;;22.76;57.90;100546.82;2200609;80;28674;-65
2022/07/05 14:15:00;;;;;;;2.55;1.77;;;;;;;22.75;57.46;100546.98;2161024;82;31019;-65
2022/07/05 14:18:07;;;;;;;2.92;1.80;;;;;;;22.73;56.70;100546.27;2158416;82;32941;-65
2022/07/05 14:21:16;;;;;;;2.60;1.52;;;;;;;22.70;56.48;100545.20;2158267;82;29435;-66
2022/07/05 14:24:25;;;;;;;3.50;1.52;;;;;;;22.67;56.01;100545.00;2158550;82;27613;-66